Time;durP1;ratioP1;P1;durP2;ratioP2;P2;SDS_P1;SDS_P2;PMS_P1;PMS_P2;Temp;Humidity;BMP_temperature;BMP_pressure;BME280_temperature;BME280_humidity;BME280_pressure;Samples;Min_cycle;Max_cycle;Signal;HPM_P1;HPM_P2
2023/09/17 00:00:38;;;;;;;10.65;7.55;;;28.60;51.30;;;;;;4994204;28;20486;-71
2023/09/17 00:03:04;;;;;;;10.85;7.70;;;28.50;51.30;;;;;;4991646;28;20088;-71
2023/09/17 00:05:34;;;;;;;13.25;7.00;;;28.50;51.30;;;;;;4991565;28;20082;-70
2023/09/17 00:08:00;;;;;;;9.82;6.97;;;28.40;51.50;;;;;;4975364;28;20046;-70
2023/09/17 00:10:26;;;;;;;12.63;6.38;;;28.50;51.50;;;;;;4991440;28;20157;-70
2023/09/17 00:12:54;;;;;;;8.32;6.75;;;28.60;51.50;;;;;;4991087;28;20053;-70
2023/09/17 00:15:27;;;;;;;9.07;6.72;;;28.40;51.60;;;;;;4991248;28;20054;-71
2023/09/17 00:17:54;;;;;;;18.85;8.38;;;28.50;51.60;;;;;;4991472;28;20050;-71
2023/09/17 00:20:20;;;;;;;12.90;8.05;;;28.40;51.60;;;;;;4990771;28;20513;-70
2023/09/17 00:22:46;;;;;;;9.68;6.97;;;28.50;51.60;;;;;;4991296;28;20074;-71
2023/09/17 00:25:12;;;;;;;12.90;6.90;;;28.50;51.70;;;;;;4991288;28;20046;-71
2023/09/17 00:27:39;;;;;;;10.77;7.07;;;28.50;51.70;;;;;;4975089;28;20046;-71
2023/09/17 00:30:10;;;;;;;11.18;6.78;;;28.40;51.70;;;;;;4974939;28;20470;-71
2023/09/17 00:32:36;;;;;;;12.77;8.38;;;28.60;51.70;;;;;;4991038;28;20537;-70
2023/09/17 00:35:03;;;;;;;8.98;7.72;;;28.40;51.70;;;;;;4974867;28;20043;-70
2023/09/17 00:37:29;;;;;;;12.75;6.90;;;28.50;51.70;;;;;;4958884;28;20034;-70
2023/09/17 00:39:56;;;;;;;10.68;7.28;;;28.60;51.70;;;;;;4990779;28;20046;-69
2023/09/17 00:42:22;;;;;;;10.05;6.95;;;28.50;51.70;;;;;;4991245;28;20039;-69
2023/09/17 00:44:48;;;;;;;13.13;7.15;;;28.60;51.70;;;;;;4989963;28;20440;-70
2023/09/17 00:47:14;;;;;;;12.55;7.97;;;28.60;51.70;;;;;;4992094;28;20501;-71
2023/09/17 00:49:40;;;;;;;10.45;7.32;;;28.40;51.70;;;;;;4992291;28;20034;-70
2023/09/17 00:52:17;;;;;;;10.93;7.40;;;28.50;51.70;;;;;;4992183;28;20034;-70
2023/09/17 00:54:45;;;;;;;10.80;8.15;;;28.50;51.70;;;;;;4993359;28;20042;-70
2023/09/17 00:57:15;;;;;;;11.57;7.65;;;28.50;51.70;;;;;;4991611;28;20042;-70
2023/09/17 00:59:42;;;;;;;14.73;7.07;;;28.40;51.80;;;;;;4991643;28;20040;-71
2023/09/17 01:02:08;;;;;;;13.02;7.38;;;28.40;51.80;;;;;;4993004;28;20038;-70
2023/09/17 01:04:36;;;;;;;9.88;6.90;;;28.30;51.90;;;;;;5008035;28;20077;-70
2023/09/17 01:07:04;;;;;;;9.57;7.30;;;28.50;51.90;;;;;;4992824;28;20490;-71
2023/09/17 01:09:31;;;;;;;15.35;7.05;;;28.30;52.00;;;;;;4992882;28;20105;-71
2023/09/17 01:11:58;;;;;;;10.48;6.97;;;28.30;52.00;;;;;;4992933;28;20042;-71
2023/09/17 01:14:24;;;;;;;13.15;7.47;;;28.30;52.00;;;;;;4991417;28;20499;-71
2023/09/17 01:16:51;;;;;;;10.60;6.68;;;28.40;52.00;;;;;;4991444;28;20034;-71
2023/09/17 01:19:29;;;;;;;14.32;7.75;;;28.40;52.00;;;;;;4992724;28;20375;-70
2023/09/17 01:22:01;;;;;;;12.45;7.00;;;28.40;52.10;;;;;;4991044;28;20058;-71
2023/09/17 01:24:28;;;;;;;;;;;28.30;52.10;;;;;;4991758;28;20038;-71
2023/09/17 01:27:03;;;;;;;13.50;8.00;;;28.50;52.10;;;;;;4958115;28;19921;-70
2023/09/17 01:29:41;;;;;;;11.73;7.60;;;28.40;52.10;;;;;;4992479;28;20066;-71
2023/09/17 01:32:08;;;;;;;12.50;7.55;;;28.50;52.10;;;;;;4992145;28;20088;-71
2023/09/17 01:34:39;;;;;;;15.93;7.68;;;28.40;52.10;;;;;;4991105;28;20037;-71
2023/09/17 01:37:30;;;;;;;9.65;6.90;;;28.40;52.10;;;;;;4991094;28;20045;-70
2023/09/17 01:40:05;;;;;;;10.52;7.75;;;28.30;52.10;;;;;;4991472;28;20042;-71
2023/09/17 01:42:31;;;;;;;14.10;7.97;;;28.40;52.10;;;;;;4992484;28;20502;-70
2023/09/17 01:44:59;;;;;;;12.00;7.05;;;28.40;52.10;;;;;;4975004;28;20038;-71
2023/09/17 01:47:27;;;;;;;11.10;7.32;;;28.30;52.00;;;;;;5007418;28;20053;-70
2023/09/17 01:49:57;;;;;;;9.35;6.40;;;28.30;52.10;;;;;;4991971;28;20780;-70
2023/09/17 01:52:32;;;;;;;11.40;6.80;;;28.30;52.00;;;;;;4990945;28;20057;-71
2023/09/17 01:55:00;;;;;;;9.40;6.80;;;28.20;52.10;;;;;;4991026;28;20146;-71
2023/09/17 01:57:26;;;;;;;11.65;7.38;;;28.30;52.10;;;;;;4992046;28;20066;-71
2023/09/17 01:59:52;;;;;;;10.00;6.65;;;28.20;52.20;;;;;;4990378;28;20058;-71
2023/09/17 02:02:19;;;;;;;14.55;7.18;;;28.40;52.20;;;;;;4990332;28;20157;-70
2023/09/17 02:04:46;;;;;;;10.50;7.50;;;28.30;52.20;;;;;;4991621;28;20429;-71
2023/09/17 02:07:15;;;;;;;11.70;7.18;;;28.30;52.30;;;;;;4992254;28;20030;-70
2023/09/17 02:09:41;;;;;;;10.68;7.10;;;28.20;52.30;;;;;;4990244;28;20030;-71
2023/09/17 02:12:07;;;;;;;13.27;7.30;;;28.30;52.30;;;;;;5000384;28;20045;-70
2023/09/17 02:14:33;;;;;;;10.57;6.88;;;28.20;52.30;;;;;;5011346;28;20073;-70
2023/09/17 02:16:59;;;;;;;8.20;6.78;;;28.40;52.30;;;;;;5010325;28;20456;-70
2023/09/17 02:19:25;;;;;;;12.27;6.40;;;28.20;52.30;;;;;;5011643;28;20029;-71
2023/09/17 02:21:52;;;;;;;12.20;7.60;;;28.30;52.40;;;;;;5009916;28;20076;-70
2023/09/17 02:24:19;;;;;;;10.40;6.85;;;28.20;52.40;;;;;;5011415;28;20040;-70
2023/09/17 02:26:46;;;;;;;10.07;6.93;;;28.40;52.30;;;;;;5010283;28;20041;-71
2023/09/17 02:29:13;;;;;;;9.57;6.88;;;28.40;52.30;;;;;;4993872;28;20133;-70
2023/09/17 02:31:39;;;;;;;10.90;6.40;;;28.30;52.30;;;;;;5009936;28;20517;-71
2023/09/17 02:34:05;;;;;;;9.75;6.75;;;28.40;52.30;;;;;;4989162;28;20042;-71
2023/09/17 02:36:31;;;;;;;10.15;6.72;;;28.40;52.30;;;;;;4989432;28;20525;-71
2023/09/17 02:38:57;;;;;;;7.93;6.88;;;28.20;52.30;;;;;;4989440;28;20126;-69
2023/09/17 02:41:23;;;;;;;10.13;6.63;;;28.20;52.30;;;;;;4972884;28;20113;-70
2023/09/17 02:43:49;;;;;;;10.55;6.70;;;28.30;52.30;;;;;;4990474;28;20047;-70
2023/09/17 02:46:16;;;;;;;10.23;6.80;;;28.30;52.30;;;;;;4976781;28;20347;-70
2023/09/17 02:48:42;;;;;;;11.38;6.35;;;28.30;52.30;;;;;;4993150;28;20132;-71
2023/09/17 02:51:08;;;;;;;12.48;7.25;;;28.30;52.30;;;;;;4976877;28;20034;-70
2023/09/17 02:53:34;;;;;;;12.32;7.53;;;28.30;52.50;;;;;;4976953;28;20509;-71
2023/09/17 02:56:01;;;;;;;10.15;6.75;;;28.10;52.50;;;;;;4992997;28;20046;-71
2023/09/17 02:58:27;;;;;;;13.55;6.88;;;28.20;52.50;;;;;;4976850;28;20034;-71
2023/09/17 03:00:53;;;;;;;12.52;6.35;;;28.50;52.50;;;;;;4992595;28;20080;-70
2023/09/17 03:03:19;;;;;;;10.32;6.30;;;28.10;52.50;;;;;;4976258;28;20074;-71
2023/09/17 03:05:48;;;;;;;9.43;6.22;;;28.20;52.60;;;;;;5009999;28;20548;-71
2023/09/17 03:08:15;;;;;;;11.57;6.03;;;28.30;52.60;;;;;;5013414;28;20037;-71
2023/09/17 03:10:45;;;;;;;14.18;6.72;;;28.10;52.60;;;;;;4996976;28;20038;-71
2023/09/17 03:13:14;;;;;;;8.77;5.60;;;28.30;52.60;;;;;;4997137;28;20456;-71
2023/09/17 03:15:42;;;;;;;8.18;5.72;;;28.20;52.60;;;;;;5013307;28;20121;-70
2023/09/17 03:18:09;;;;;;;9.02;5.60;;;28.30;52.60;;;;;;5013247;28;20033;-71
2023/09/17 03:20:35;;;;;;;11.40;6.40;;;28.20;52.60;;;;;;5013038;28;20057;-70
2023/09/17 03:23:04;;;;;;;9.93;5.97;;;28.10;52.60;;;;;;5013038;28;20428;-71
2023/09/17 03:25:31;;;;;;;7.75;5.63;;;28.20;52.60;;;;;;5012815;28;20763;-70
2023/09/17 03:28:01;;;;;;;8.98;5.97;;;28.20;52.60;;;;;;5013225;28;20026;-70
2023/09/17 03:30:28;;;;;;;8.98;5.72;;;28.10;52.50;;;;;;5012782;28;20042;-71
2023/09/17 03:32:57;;;;;;;9.80;5.88;;;28.20;52.50;;;;;;5011537;28;20096;-70
2023/09/17 03:35:24;;;;;;;10.20;6.28;;;28.20;52.50;;;;;;4995100;28;20057;-71
2023/09/17 03:37:50;;;;;;;8.75;5.90;;;28.30;52.60;;;;;;5011862;28;20046;-71
2023/09/17 03:40:16;;;;;;;9.82;6.13;;;28.20;52.60;;;;;;5011715;28;20064;-71
2023/09/17 03:42:43;;;;;;;8.93;5.57;;;28.30;52.70;;;;;;5011719;28;20104;-72
2023/09/17 03:45:12;;;;;;;10.98;6.38;;;28.20;52.70;;;;;;4995225;28;20057;-71
2023/09/17 03:47:40;;;;;;;11.20;6.25;;;28.20;52.60;;;;;;4995593;28;20137;-71
2023/09/17 03:50:13;;;;;;;8.88;6.18;;;28.30;52.70;;;;;;4995218;28;20422;-71
2023/09/17 03:52:42;;;;;;;9.15;6.28;;;28.10;52.70;;;;;;4994882;28;20077;-71
2023/09/17 03:55:09;;;;;;;9.77;5.25;;;28.20;52.70;;;;;;4978501;28;20401;-71
2023/09/17 03:57:37;;;;;;;8.02;5.20;;;28.30;52.70;;;;;;5011239;28;20041;-71
2023/09/17 04:00:10;;;;;;;5.10;4.00;;;28.10;52.80;;;;;;4994979;28;20157;-71
2023/09/17 04:02:40;;;;;;;4.90;3.63;;;28.10;52.80;;;;;;5007727;28;20042;-71
2023/09/17 04:05:12;;;;;;;6.13;4.20;;;28.00;52.80;;;;;;5011261;28;20322;-70
2023/09/17 04:07:40;;;;;;;6.93;4.93;;;28.10;52.80;;;;;;5011058;28;20045;-71
2023/09/17 04:10:09;;;;;;;3.90;3.40;;;28.00;52.80;;;;;;4994648;28;20383;-69
2023/09/17 04:12:37;;;;;;;4.00;3.28;;;28.00;52.80;;;;;;5011001;28;20034;-71
2023/09/17 04:15:13;;;;;;;4.28;2.90;;;28.10;52.80;;;;;;5010888;28;20398;-70
2023/09/17 04:17:41;;;;;;;4.65;3.55;;;28.00;52.80;;;;;;4994361;28;20065;-72
2023/09/17 04:20:13;;;;;;;4.47;4.00;;;28.20;55.60;;;;;;4994365;28;20119;-71
2023/09/17 04:22:43;;;;;;;8.30;3.60;;;28.60;57.30;;;;;;4982793;28;20077;-71
2023/09/17 04:25:10;;;;;;;5.10;4.18;;;28.90;55.90;;;;;;4990917;28;20038;-71
2023/09/17 04:27:41;;;;;;;4.28;3.83;;;29.10;60.40;;;;;;4991286;28;20116;-70
2023/09/17 04:30:10;;;;;;;6.90;3.78;;;29.00;55.60;;;;;;4990918;28;20050;-70
2023/09/17 04:32:38;;;;;;;5.50;4.05;;;28.80;53.60;;;;;;4974810;28;20030;-69
2023/09/17 04:35:07;;;;;;;5.70;4.60;;;28.70;52.90;;;;;;4990657;28;20457;-70
2023/09/17 04:37:37;;;;;;;7.50;4.80;;;28.60;52.50;;;;;;4990997;28;20050;-71
2023/09/17 04:40:13;;;;;;;5.68;4.63;;;28.60;52.20;;;;;;4958328;28;20462;-69
2023/09/17 04:42:48;;;;;;;5.90;4.32;;;28.80;52.00;;;;;;4953211;28;20080;-70
2023/09/17 04:45:35;;;;;;;7.07;4.53;;;28.60;51.70;;;;;;4993751;28;20057;-70
2023/09/17 04:48:06;;;;;;;5.43;4.25;;;28.50;51.40;;;;;;4993803;28;20045;-70
2023/09/17 04:50:33;;;;;;;7.45;4.35;;;28.60;51.20;;;;;;4993901;28;20152;-69
2023/09/17 04:53:00;;;;;;;5.75;3.92;;;28.50;51.00;;;;;;5010125;28;20503;-70
2023/09/17 04:55:26;;;;;;;5.85;4.43;;;28.60;50.80;;;;;;4977242;28;20045;-70
2023/09/17 04:57:54;;;;;;;5.85;4.45;;;28.50;50.60;;;;;;4971026;28;20565;-69
2023/09/17 05:00:20;;;;;;;9.18;4.65;;;28.50;50.30;;;;;;4970928;28;20046;-70
2023/09/17 05:02:49;;;;;;;5.47;4.22;;;28.50;50.30;;;;;;4971180;28;20407;-70
2023/09/17 05:05:18;;;;;;;6.47;4.53;;;28.50;50.30;;;;;;4954870;28;20050;-71
2023/09/17 05:07:44;;;;;;;6.78;4.65;;;28.50;50.20;;;;;;4970207;28;20042;-71
2023/09/17 05:10:10;;;;;;;5.30;3.42;;;28.60;50.00;;;;;;4967935;28;20128;-70
2023/09/17 05:12:37;;;;;;;6.35;4.45;;;28.40;49.90;;;;;;4951456;29;20051;-70
2023/09/17 05:15:04;;;;;;;8.20;4.28;;;28.60;49.70;;;;;;4951541;29;20043;-69
2023/09/17 05:17:31;;;;;;;8.10;4.28;;;28.40;49.00;;;;;;4951492;29;20055;-69
2023/09/17 05:19:57;;;;;;;6.55;4.68;;;28.60;48.60;;;;;;4951307;29;20051;-69
2023/09/17 05:22:23;;;;;;;7.88;5.03;;;28.50;48.00;;;;;;4951215;28;20192;-69
2023/09/17 05:24:49;;;;;;;6.50;4.70;;;28.60;47.70;;;;;;4951113;29;20507;-68
2023/09/17 05:27:15;;;;;;;7.15;4.30;;;28.70;47.20;;;;;;4951402;29;20154;-68
2023/09/17 05:29:43;;;;;;;6.07;4.50;;;28.50;47.30;;;;;;4983270;28;20549;-68
2023/09/17 05:32:09;;;;;;;7.43;4.60;;;28.60;46.50;;;;;;4974994;28;20042;-68
2023/09/17 05:34:35;;;;;;;6.22;4.28;;;28.60;46.40;;;;;;4973387;28;20486;-71
2023/09/17 05:37:01;;;;;;;6.28;4.13;;;28.60;46.40;;;;;;4989630;28;20113;-69
2023/09/17 05:39:27;;;;;;;5.43;4.47;;;28.60;46.20;;;;;;4973510;28;20082;-68
2023/09/17 05:41:55;;;;;;;6.13;4.18;;;28.70;46.00;;;;;;4989561;28;20233;-68
2023/09/17 05:44:22;;;;;;;6.38;4.85;;;28.70;46.10;;;;;;4973356;28;20121;-68
2023/09/17 05:46:48;;;;;;;7.88;4.90;;;28.60;45.80;;;;;;4973254;28;20046;-68
2023/09/17 05:49:14;;;;;;;8.27;4.28;;;28.80;45.50;;;;;;4989683;28;20452;-70
2023/09/17 05:51:40;;;;;;;5.30;3.90;;;28.60;45.40;;;;;;4973553;28;20164;-69
2023/09/17 05:54:08;;;;;;;7.03;3.97;;;28.60;45.40;;;;;;4973131;28;20061;-70
2023/09/17 05:56:34;;;;;;;6.15;3.70;;;28.60;45.70;;;;;;5008271;28;20050;-70
2023/09/17 05:59:00;;;;;;;5.78;3.95;;;28.60;46.20;;;;;;4994406;28;20038;-69
2023/09/17 06:01:26;;;;;;;5.50;3.92;;;28.60;46.80;;;;;;5005589;28;20375;-70
2023/09/17 06:03:52;;;;;;;7.38;4.85;;;28.60;47.10;;;;;;5009432;28;20048;-69
2023/09/17 06:06:18;;;;;;;10.40;4.60;;;28.60;47.90;;;;;;5010037;28;20117;-69
2023/09/17 06:08:45;;;;;;;5.45;3.97;;;28.50;48.90;;;;;;5009825;28;20044;-72
2023/09/17 06:11:12;;;;;;;5.60;3.55;;;28.70;49.70;;;;;;5010036;28;20549;-73
2023/09/17 06:13:38;;;;;;;4.38;3.75;;;28.70;49.00;;;;;;5010087;28;20047;-71
2023/09/17 06:16:05;;;;;;;5.13;3.90;;;28.60;49.10;;;;;;5009667;28;20053;-69
2023/09/17 06:18:32;;;;;;;5.38;4.05;;;28.60;49.20;;;;;;5015345;28;20030;-70
2023/09/17 06:20:59;;;;;;;4.40;3.83;;;28.60;49.50;;;;;;5000399;28;20084;-70
2023/09/17 06:23:27;;;;;;;5.18;3.47;;;28.80;49.80;;;;;;5016707;28;20053;-71
2023/09/17 06:25:54;;;;;;;6.43;4.20;;;28.70;50.00;;;;;;5016711;28;20044;-70
2023/09/17 06:28:20;;;;;;;5.10;4.05;;;28.70;50.30;;;;;;5016462;28;20141;-69
2023/09/17 06:30:46;;;;;;;5.30;3.67;;;28.70;50.50;;;;;;5016399;28;20037;-69
2023/09/17 06:33:12;;;;;;;3.63;3.10;;;28.70;50.70;;;;;;5017827;28;20034;-70
2023/09/17 06:35:38;;;;;;;6.32;4.13;;;28.80;50.80;;;;;;5016073;28;20083;-71
2023/09/17 06:38:04;;;;;;;9.07;3.83;;;28.80;50.80;;;;;;5016545;28;20033;-70
2023/09/17 06:40:30;;;;;;;5.50;3.78;;;28.70;50.80;;;;;;5018142;28;20103;-71
2023/09/17 06:42:56;;;;;;;6.10;3.88;;;28.80;50.90;;;;;;5035119;28;20071;-70
2023/09/17 06:45:22;;;;;;;6.40;4.22;;;28.80;50.80;;;;;;5035163;28;20041;-71
2023/09/17 06:47:49;;;;;;;4.95;3.85;;;28.80;50.80;;;;;;5035159;28;20037;-71
2023/09/17 06:50:15;;;;;;;3.97;3.42;;;28.90;50.70;;;;;;5035092;28;20033;-71
2023/09/17 06:52:41;;;;;;;6.30;4.00;;;28.80;50.50;;;;;;5014985;28;20391;-71
2023/09/17 06:55:07;;;;;;;9.38;4.30;;;28.70;50.30;;;;;;5015257;28;20100;-72
2023/09/17 06:57:33;;;;;;;6.35;3.90;;;28.60;50.10;;;;;;5015251;28;20054;-71
2023/09/17 06:59:59;;;;;;;8.98;4.15;;;28.80;49.90;;;;;;4999138;28;20038;-71
2023/09/17 07:02:25;;;;;;;6.13;4.00;;;28.70;49.90;;;;;;5015000;28;20077;-72
2023/09/17 07:04:51;;;;;;;6.07;4.35;;;28.60;50.00;;;;;;4998600;28;20509;-73
2023/09/17 07:07:17;;;;;;;4.18;3.78;;;28.70;50.10;;;;;;5014981;28;20041;-69
2023/09/17 07:09:43;;;;;;;7.07;3.28;;;28.70;50.20;;;;;;5015199;28;20507;-69
2023/09/17 07:12:09;;;;;;;6.78;4.40;;;28.80;50.20;;;;;;4998574;28;20192;-69
2023/09/17 07:14:35;;;;;;;5.43;4.53;;;28.60;50.30;;;;;;4999808;28;20057;-69
2023/09/17 07:17:01;;;;;;;4.68;4.13;;;28.60;50.40;;;;;;4995236;28;20486;-69
2023/09/17 07:19:27;;;;;;;10.32;4.07;;;28.70;50.20;;;;;;4995359;28;20049;-68
2023/09/17 07:21:53;;;;;;;5.00;3.38;;;28.70;50.00;;;;;;4995309;28;20054;-68
2023/09/17 07:24:19;;;;;;;5.97;4.18;;;28.70;50.00;;;;;;5025285;28;20061;-68
2023/09/17 07:26:45;;;;;;;9.52;5.18;;;28.70;50.00;;;;;;5034686;28;20065;-68
2023/09/17 07:29:11;;;;;;;4.63;3.90;;;28.80;49.80;;;;;;5033083;28;20044;-69
2023/09/17 07:31:37;;;;;;;8.30;4.32;;;28.70;49.70;;;;;;5031519;28;20033;-68
2023/09/17 07:34:03;;;;;;;5.40;4.70;;;28.60;49.80;;;;;;5031478;28;20068;-68
2023/09/17 07:36:29;;;;;;;5.40;4.20;;;28.60;49.70;;;;;;5031455;28;20041;-68
2023/09/17 07:38:55;;;;;;;5.97;4.00;;;28.70;49.80;;;;;;5031316;28;20488;-68
2023/09/17 07:41:21;;;;;;;4.68;4.20;;;28.60;49.90;;;;;;4999263;28;20142;-66
2023/09/17 07:43:47;;;;;;;6.75;3.92;;;28.60;49.90;;;;;;4991949;28;20121;-69
2023/09/17 07:46:14;;;;;;;8.60;3.53;;;28.70;50.00;;;;;;4991472;28;20050;-66
2023/09/17 07:48:40;;;;;;;5.03;3.72;;;28.70;50.20;;;;;;4991930;28;20038;-67
2023/09/17 07:51:06;;;;;;;5.47;4.05;;;28.70;50.30;;;;;;4975150;28;20038;-68
2023/09/17 07:53:35;;;;;;;5.47;4.10;;;28.70;50.20;;;;;;4997584;28;20179;-68
2023/09/17 07:56:01;;;;;;;5.03;3.63;;;28.70;50.10;;;;;;5030670;28;20041;-68
2023/09/17 07:58:27;;;;;;;5.32;4.38;;;28.60;50.00;;;;;;5028429;28;20177;-67
2023/09/17 08:00:53;;;;;;;9.40;3.97;;;28.70;50.00;;;;;;5012105;28;20038;-73
2023/09/17 08:03:19;;;;;;;6.20;3.70;;;28.70;50.00;;;;;;5011983;28;20040;-70
2023/09/17 08:05:46;;;;;;;6.43;4.35;;;28.60;50.10;;;;;;5013735;28;20042;-70
2023/09/17 08:08:14;;;;;;;5.82;4.10;;;28.70;50.30;;;;;;5013747;28;20045;-72
2023/09/17 08:10:41;;;;;;;7.63;4.00;;;28.60;50.30;;;;;;5012507;28;20122;-72
2023/09/17 08:13:07;;;;;;;4.13;3.38;;;28.60;49.60;;;;;;5013568;28;20058;-71
2023/09/17 08:15:36;;;;;;;5.55;3.97;;;28.60;50.10;;;;;;5013545;28;20504;-72
2023/09/17 08:18:02;;;;;;;5.57;3.72;;;28.70;50.00;;;;;;5012069;28;20030;-70
2023/09/17 08:20:28;;;;;;;5.38;3.70;;;28.60;49.90;;;;;;5012037;28;20448;-70
2023/09/17 08:22:54;;;;;;;6.82;4.05;;;28.50;49.80;;;;;;5013126;28;20096;-69
2023/09/17 08:25:40;;;;;;;6.88;3.22;;;28.70;49.60;;;;;;5013247;28;20032;-68
2023/09/17 08:28:27;;;;;;;6.05;3.63;;;28.70;49.50;;;;;;5013045;28;20073;-71
2023/09/17 08:31:13;;;;;;;4.10;2.80;;;28.60;49.40;;;;;;5013028;28;20059;-70
2023/09/17 08:34:03;;;;;;;7.38;3.38;;;28.60;49.50;;;;;;5011283;28;20060;-71
2023/09/17 08:36:37;;;;;;;4.20;3.47;;;28.60;49.60;;;;;;5011640;28;20512;-70
2023/09/17 08:39:06;;;;;;;4.28;3.88;;;28.60;49.50;;;;;;5013218;28;20092;-72
2023/09/17 08:41:35;;;;;;;5.85;3.60;;;28.50;49.30;;;;;;5011876;28;20034;-71
2023/09/17 08:44:04;;;;;;;9.10;3.65;;;28.60;49.20;;;;;;5012900;28;20053;-70
2023/09/17 08:46:31;;;;;;;10.80;3.88;;;28.50;49.30;;;;;;5011646;28;20026;-72
2023/09/17 08:48:59;;;;;;;10.63;5.88;;;28.70;51.40;;;;;;5011858;28;20342;-71
2023/09/17 08:51:26;;;;;;;6.07;3.67;;;28.70;51.20;;;;;;5013139;28;20062;-72
2023/09/17 08:54:07;;;;;;;6.80;4.50;;;28.70;50.30;;;;;;5011531;28;20508;-72
2023/09/17 08:56:37;;;;;;;10.90;6.55;;;28.70;49.60;;;;;;5012876;28;20046;-72
2023/09/17 08:59:12;;;;;;;6.45;4.05;;;28.80;48.60;;;;;;5011288;28;20033;-72
2023/09/17 09:01:46;;;;;;;4.60;3.75;;;29.00;47.80;;;;;;5012466;28;20042;-73
2023/09/17 09:04:14;;;;;;;5.32;3.70;;;28.90;47.60;;;;;;5012137;28;20034;-71
2023/09/17 09:06:43;;;;;;;10.15;4.15;;;28.90;47.50;;;;;;5012305;28;20057;-71
2023/09/17 09:09:09;;;;;;;6.15;4.43;;;28.80;47.60;;;;;;5029909;28;20033;-73
2023/09/17 09:11:35;;;;;;;4.03;3.60;;;28.90;47.60;;;;;;5031293;28;20049;-70
2023/09/17 09:14:06;;;;;;;6.30;4.38;;;28.90;47.50;;;;;;5032131;28;20037;-71
2023/09/17 09:16:34;;;;;;;7.60;3.45;;;28.80;47.30;;;;;;5019171;28;20069;-70
2023/09/17 09:19:00;;;;;;;4.05;3.60;;;28.80;46.90;;;;;;5011220;28;20065;-71
2023/09/17 09:21:28;;;;;;;8.82;4.00;;;28.90;47.10;;;;;;5017676;28;20057;-71
2023/09/17 09:23:58;;;;;;;5.22;3.63;;;28.80;47.20;;;;;;5015432;28;20044;-73
2023/09/17 09:26:38;;;;;;;4.03;3.40;;;29.00;47.70;;;;;;5012237;28;20057;-72
2023/09/17 09:29:06;;;;;;;5.63;3.85;;;28.80;47.30;;;;;;4992688;28;20038;-72
2023/09/17 09:31:33;;;;;;;5.95;3.25;;;29.00;47.60;;;;;;5007730;28;20546;-72
2023/09/17 09:34:00;;;;;;;5.93;3.25;;;28.80;47.10;;;;;;5012674;28;20180;-72
2023/09/17 09:36:32;;;;;;;4.55;3.83;;;28.90;47.00;;;;;;5012097;28;20468;-72
2023/09/17 09:38:59;;;;;;;4.55;3.15;;;28.90;47.70;;;;;;4993383;28;20034;-72
2023/09/17 09:41:26;;;;;;;4.50;3.45;;;28.80;48.60;;;;;;5022858;28;20029;-72
2023/09/17 09:43:53;;;;;;;6.15;3.50;;;28.90;48.20;;;;;;5026433;28;20033;-72
2023/09/17 09:46:19;;;;;;;2.80;2.60;;;28.80;48.00;;;;;;5011729;28;20038;-72
2023/09/17 09:48:46;;;;;;;3.28;2.63;;;28.90;47.50;;;;;;5011834;28;20022;-71
2023/09/17 09:51:16;;;;;;;4.43;2.95;;;28.90;47.20;;;;;;5010247;28;20056;-72
2023/09/17 09:53:42;;;;;;;3.97;3.00;;;28.90;46.80;;;;;;5011691;28;20091;-71
2023/09/17 09:56:08;;;;;;;3.95;2.92;;;28.80;46.40;;;;;;5011816;28;20034;-72
2023/09/17 09:58:35;;;;;;;3.13;2.80;;;28.90;46.20;;;;;;5011811;28;20030;-72
2023/09/17 10:01:04;;;;;;;3.35;2.70;;;29.00;46.60;;;;;;5011525;28;20062;-72
2023/09/17 10:03:30;;;;;;;6.80;3.20;;;28.90;44.90;;;;;;5010476;28;20101;-73
2023/09/17 10:06:06;;;;;;;8.02;3.40;;;28.80;45.30;;;;;;5035290;28;20045;-72
2023/09/17 10:08:39;;;;;;;3.88;3.30;;;28.80;45.20;;;;;;5028830;28;20063;-72
2023/09/17 10:11:08;;;;;;;7.20;3.40;;;28.80;45.40;;;;;;5009252;28;20365;-70
2023/09/17 10:13:35;;;;;;;4.47;3.65;;;28.80;47.00;;;;;;5009088;28;20092;-70
2023/09/17 10:16:02;;;;;;;5.53;2.90;;;28.90;48.10;;;;;;4992897;28;20090;-70
2023/09/17 10:18:31;;;;;;;7.90;3.70;;;29.00;48.00;;;;;;5008972;28;20053;-71
2023/09/17 10:20:58;;;;;;;10.45;3.92;;;29.00;48.10;;;;;;5026242;28;20053;-70
2023/09/17 10:23:26;;;;;;;3.67;2.88;;;29.00;48.00;;;;;;5032143;28;20060;-70
2023/09/17 10:25:54;;;;;;;8.27;3.80;;;29.00;51.00;;;;;;5036998;28;20068;-71
2023/09/17 10:28:21;;;;;;;3.30;2.95;;;29.40;48.00;;;;;;5048332;28;20040;-72
2023/09/17 10:30:51;;;;;;;7.30;4.30;;;29.30;46.40;;;;;;5026967;28;20506;-71
2023/09/17 10:33:18;;;;;;;3.95;3.20;;;29.20;46.00;;;;;;5008678;28;20049;-71
2023/09/17 10:35:45;;;;;;;4.60;3.50;;;29.10;45.60;;;;;;5014173;28;20053;-72
2023/09/17 10:38:14;;;;;;;8.85;3.17;;;29.20;45.50;;;;;;5011280;28;20120;-72
2023/09/17 10:40:41;;;;;;;9.75;4.15;;;29.20;46.80;;;;;;5011278;28;20550;-72
2023/09/17 10:43:07;;;;;;;8.55;4.18;;;29.20;47.40;;;;;;5017648;28;20033;-73
2023/09/17 10:45:40;;;;;;;5.18;3.15;;;29.40;50.70;;;;;;5029737;28;20072;-74
2023/09/17 10:48:08;;;;;;;7.75;3.55;;;29.40;47.20;;;;;;5022646;28;20030;-72
2023/09/17 10:50:35;;;;;;;5.20;3.60;;;29.40;46.80;;;;;;5028726;28;20041;-71
2023/09/17 10:53:01;;;;;;;8.60;3.53;;;29.40;46.50;;;;;;5027763;28;20033;-72
2023/09/17 10:55:31;;;;;;;6.10;3.05;;;29.30;46.50;;;;;;5009816;28;20036;-69
2023/09/17 10:58:18;;;;;;;7.70;3.58;;;29.30;47.50;;;;;;5011131;28;20117;-71
2023/09/17 11:00:45;;;;;;;7.45;4.03;;;29.60;54.50;;;;;;5011317;28;20525;-70
2023/09/17 11:03:15;;;;;;;6.25;3.97;;;30.10;57.00;;;;;;5009387;28;20056;-71
2023/09/17 11:05:41;;;;;;;5.70;3.85;;;30.20;55.70;;;;;;5013569;28;20454;-71
2023/09/17 11:08:08;;;;;;;6.65;3.95;;;30.00;51.20;;;;;;5032155;28;20587;-71
2023/09/17 11:10:41;;;;;;;6.88;3.90;;;29.90;48.70;;;;;;5028517;28;20045;-71
2023/09/17 11:13:11;;;;;;;5.05;3.60;;;29.80;47.40;;;;;;5014367;28;20477;-71
2023/09/17 11:15:38;;;;;;;5.28;3.72;;;29.60;47.00;;;;;;5008530;28;20463;-72
2023/09/17 11:18:07;;;;;;;3.97;3.35;;;29.70;46.70;;;;;;5029085;28;20398;-72
2023/09/17 11:20:35;;;;;;;3.95;3.28;;;29.50;46.60;;;;;;5033762;28;20037;-71
2023/09/17 11:23:02;;;;;;;4.68;2.72;;;29.60;46.70;;;;;;5033713;28;20029;-70
2023/09/17 11:25:37;;;;;;;4.57;3.08;;;29.40;46.80;;;;;;5031661;28;20044;-73
2023/09/17 11:28:12;;;;;;;4.03;2.88;;;29.50;46.90;;;;;;5022339;28;20033;-72
2023/09/17 11:31:09;;;;;;;8.73;3.22;;;29.40;46.90;;;;;;5014005;28;20557;-74
2023/09/17 11:33:38;;;;;;;5.30;3.28;;;29.50;47.00;;;;;;4975576;28;20783;-71
2023/09/17 11:36:05;;;;;;;4.78;3.28;;;29.50;47.00;;;;;;4992039;28;20478;-73
2023/09/17 11:38:32;;;;;;;5.57;3.47;;;29.40;47.10;;;;;;4991849;28;20081;-70
2023/09/17 11:41:11;;;;;;;5.68;3.17;;;29.40;47.00;;;;;;4992069;28;20033;-70
2023/09/17 11:43:42;;;;;;;5.60;3.50;;;29.40;47.00;;;;;;4991498;28;20077;-71
2023/09/17 11:46:11;;;;;;;4.10;3.07;;;29.40;47.00;;;;;;4981026;28;20546;-72
2023/09/17 11:48:37;;;;;;;4.78;2.85;;;29.30;47.00;;;;;;4983538;28;20030;-71
2023/09/17 11:51:25;;;;;;;5.43;3.70;;;29.30;46.90;;;;;;4991969;28;20535;-72
2023/09/17 11:53:54;;;;;;;3.30;3.00;;;29.30;46.90;;;;;;4991661;28;20570;-71
2023/09/17 11:56:20;;;;;;;5.50;3.08;;;29.30;46.70;;;;;;4992167;28;20050;-71
2023/09/17 11:59:18;;;;;;;5.82;3.60;;;29.20;46.90;;;;;;4991080;28;20034;-70
2023/09/17 12:01:48;;;;;;;5.57;3.50;;;29.20;47.10;;;;;;4914015;29;20049;-70
2023/09/17 12:04:15;;;;;;;5.55;3.40;;;29.40;46.90;;;;;;4898407;29;20145;-71
2023/09/17 12:06:47;;;;;;;4.78;3.90;;;29.10;47.00;;;;;;4914026;29;20161;-70
2023/09/17 12:12:07;;;;;;;5.80;3.00;;;29.10;47.20;;;;;;4949405;29;20186;-72
2023/09/17 12:14:34;;;;;;;4.05;3.17;;;29.30;47.10;;;;;;4952628;28;20493;-71
2023/09/17 12:17:01;;;;;;;3.95;3.65;;;29.10;47.00;;;;;;4970815;28;20133;-70
2023/09/17 12:19:28;;;;;;;5.35;3.10;;;29.10;47.00;;;;;;4971044;28;20047;-70
2023/09/17 12:21:56;;;;;;;6.18;3.53;;;29.10;47.00;;;;;;4971583;28;20067;-70
2023/09/17 12:24:36;;;;;;;5.55;3.15;;;29.10;47.10;;;;;;4971913;28;20047;-71
2023/09/17 12:27:29;;;;;;;2.75;2.55;;;29.10;47.10;;;;;;4954765;28;20027;-70
2023/09/17 12:29:55;;;;;;;3.35;3.03;;;29.00;46.00;;;;;;4971876;28;20082;-71
2023/09/17 12:32:29;;;;;;;3.47;3.17;;;29.20;47.20;;;;;;4971603;28;20118;-73
2023/09/17 12:34:57;;;;;;;3.67;2.90;;;29.20;47.50;;;;;;4956383;28;20416;-73
2023/09/17 12:37:25;;;;;;;5.15;3.00;;;29.00;47.40;;;;;;4962404;28;20055;-71
2023/09/17 12:39:54;;;;;;;7.13;3.22;;;28.90;47.10;;;;;;5012875;28;20036;-73
2023/09/17 12:42:21;;;;;;;7.78;3.42;;;29.00;47.70;;;;;;5013166;28;20467;-72
2023/09/17 12:44:47;;;;;;;3.45;3.15;;;29.00;47.80;;;;;;5013177;28;20561;-71
2023/09/17 12:47:14;;;;;;;5.40;3.35;;;28.90;47.30;;;;;;5013041;28;20064;-71
2023/09/17 12:49:41;;;;;;;4.68;3.05;;;29.00;47.90;;;;;;5012550;28;20026;-71
2023/09/17 12:52:07;;;;;;;3.67;3.15;;;28.90;47.10;;;;;;5012662;28;20144;-70
2023/09/17 12:54:34;;;;;;;4.63;3.20;;;28.90;47.60;;;;;;5012492;28;20466;-70